• Join FlightAware (Why Join?)
  • Login
  • US Flag 
11:18PM EDT


 

Airport Tracker/Info


-or-


 

Live Flight TrackerFlight Track Log ✈ N1476J ✈ 28-Apr-2012 ✈ KTUS - KPRC

Flight Track Log - Related Links

Times and Time Zones

All times are in EDT time to prevent confusion due to time zone crossing. See the N1476J flight status page for this flight to view local times or setup timezone preferences in your user account.

Time Position Orientation Groundspeed Altitude Reporting Facility
EDT Latitude Longitude Course Direction KTS MPH feet Rate Location/Type
12:22PM 32.4653 -111.1664 322° Northwest 157 181 8,600  Level Albuquerque Center
12:23PM 32.4958 -111.1950 324° Northwest 152 175 8,600  Level Albuquerque Center
12:24PM 32.5261 -111.2208 321° Northwest 140 161 8,600  Level Albuquerque Center
12:25PM 32.5586 -111.2519 324° Northwest 140 161 8,600  Level Albuquerque Center
12:26PM 32.5889 -111.2781 325° Northwest 135 155 8,600  Level Albuquerque Center
12:27PM 32.6194 -111.3039 321° Northwest 135 155 8,600 -60 Level Albuquerque Center
12:28PM 32.6497 -111.3325 324° Northwest 135 155 8,500 -60 Descending Albuquerque Center
12:29PM 32.6803 -111.3586 322° Northwest 135 155 8,500  Level Albuquerque Center
12:30PM 32.7106 -111.3872 318° Northwest 135 155 8,500  Level Albuquerque Center
12:31PM 32.7347 -111.4128 321° Northwest 135 155 8,500  Level Albuquerque Center
12:32PM 32.7650 -111.4417 325° Northwest 135 155 8,500  Level Albuquerque Center
12:33PM 32.7933 -111.4650 320° Northwest 135 155 8,500  Level Albuquerque Center
12:34PM 32.8217 -111.4936 324° Northwest 135 155 8,500  Level Albuquerque Center
12:35PM 32.8519 -111.5197 322° Northwest 135 155 8,500  Level Albuquerque Center
12:36PM 32.8803 -111.5458 323° Northwest 135 155 8,500  Level Albuquerque Center
12:37PM 32.9125 -111.5747 327° Northwest 135 155 8,500  Level Albuquerque Center
12:38PM 32.9431 -111.5983 323° Northwest 135 155 8,600 240 Climbing Albuquerque Center
12:39PM 32.9694 -111.6219 324° Northwest 130 150 9,000 300 Climbing Albuquerque Center
12:41PM 33.0219 -111.6667 323° Northwest 125 144 9,500 120 Climbing Albuquerque Center
12:42PM 33.0544 -111.6956 323° Northwest 130 150 9,500 -60 Level Albuquerque Center
12:43PM 33.0806 -111.7192 323° Northwest 130 150 9,400 -240 Descending Albuquerque Center
12:44PM 33.1128 -111.7481 305° West 137 158 9,100 -420 Descending Albuquerque Center
12:45PM 33.1333 -111.7833 312° West 153 176 8,700 -240 Descending Phoenix TRACON
12:47PM 33.1922 -111.8614 306° West 154 177 8,500 -60 Descending Albuquerque Center
12:48PM 33.2158 -111.9000 321° Northwest 142 163 8,600  Climbing Albuquerque Center
12:49PM 33.2333 -111.9167 320° Northwest 136 157 8,600 -60 Level Phoenix TRACON
12:50PM 33.2667 -111.9500 292° West 134 154 8,500  Descending Phoenix TRACON
12:51PM 33.2833 -112.0000 301° West 132 152 8,600  Climbing Phoenix TRACON
12:52PM 33.3000 -112.0333 270° West 129 148 8,600  Level Phoenix TRACON
12:53PM 33.3000 -112.0667 301° West 130 150 8,600  Level Phoenix TRACON
12:54PM 33.3167 -112.1000 360° North 131 151 8,600  Level Phoenix TRACON
12:55PM 33.3667 -112.1000 360° North 128 147 8,600 -60 Level Phoenix TRACON
12:56PM 33.4000 -112.1000 337° Northwest 129 148 8,500  Descending Phoenix TRACON
12:57PM 33.4333 -112.1167 360° North 129 148 8,600  Climbing Phoenix TRACON
12:58PM 33.4500 -112.1167 344° North 130 150 8,600  Level Phoenix TRACON
12:59PM 33.5000 -112.1333 337° Northwest 131 151 8,600 -60 Level Phoenix TRACON
01:00PM 33.5333 -112.1500 360° North 136 157 8,500  Descending Phoenix TRACON
01:01PM 33.5667 -112.1500 344° North 137 158 8,600  Climbing Phoenix TRACON
01:02PM 33.6167 -112.1667 354° North 137 158 8,600  Level Phoenix TRACON
01:03PM 33.6411 -112.1697 348° North 142 163 8,600  Level Albuquerque Center
01:04PM 33.6783 -112.1794 349° North 142 163 8,600  Level Albuquerque Center
01:05PM 33.7072 -112.1861 353° North 142 163 8,600  Level Albuquerque Center
01:07PM 33.8000 -112.2000 337° Northwest 137 158 8,600  Level Phoenix TRACON
01:08PM 33.8333 -112.2167 337° Northwest 138 159 8,600  Level Phoenix TRACON
01:09PM 33.8667 -112.2333 353° North 137 158 8,600  Level Phoenix TRACON
01:11PM 33.9219 -112.2411 348° North 153 176 8,600  Level Albuquerque Center
01:12PM 33.9592 -112.2508 348° North 142 163 8,600  Level Albuquerque Center
01:13PM 33.9964 -112.2606 346° North 137 158 8,600  Level Albuquerque Center
01:14PM 34.0356 -112.2728 351° North 137 158 8,600  Level Albuquerque Center
01:15PM 34.0728 -112.2800 347° North 137 158 8,600 -60 Level Albuquerque Center
01:16PM 34.1078 -112.2897 347° North 137 158 8,500  Descending Albuquerque Center
01:17PM 34.1408 -112.2992 351° North 137 158 8,600  Climbing Albuquerque Center
01:18PM 34.1822 -112.3067 348° North 143 165 8,500  Descending Albuquerque Center
01:19PM 34.2214 -112.3167 354° North 143 165 8,600  Climbing Albuquerque Center
01:20PM 34.2589 -112.3214 348° North 143 165 8,500 -60 Descending Albuquerque Center
01:21PM 34.2981 -112.3311 346° North 143 165 8,500 120 Level Albuquerque Center
01:22PM 34.3414 -112.3439 345° North 143 165 8,800 120 Climbing Albuquerque Center
01:23PM 34.3783 -112.3561 348° North 143 165 8,800  Level Albuquerque Center
01:24PM 34.4178 -112.3661 335° Northwest 143 165 8,800 -60 Level Albuquerque Center
01:25PM 34.4522 -112.3858 337° Northwest 143 165 8,700  Descending Albuquerque Center
01:26PM 34.4850 -112.4031 338° Northwest 148 170 8,800  Climbing Albuquerque Center
01:27PM 34.5197 -112.4203 338° Northwest 143 165 8,700 -120 Descending Albuquerque Center